Hauptseite
METAR-TAF:

METAR-TAF

Flughäfen :

Rouen, Frankreich

Flughafen Rouen

Breite: 49-23N, Länge: 001-11E, Höhe: 157 m

Beobachtung

Neuester Wetterbericht von vor 23 Minuten, um 05:30 UTC
Wind 8 kt aus West/Südwest
Temperatur 6°C
Luftfeuchtigkeit 93%
Luftdruck 1019 hPa
Sichtweite 10 km oder mehr
Leicht bewölkt in der Höhe von 1000 ft
Durchbrochene Bewölkung in der Höhe von 1900 ft
Durchbrochene Bewölkung in der Höhe von 2800 ft

METAR: LFOP 260530Z AUTO 25008KT 9999 FEW010 BKN019 BKN028 06/05 Q1019 NOSIG

Zeit: 07:53 (05:53 UTC)

Prognose

Neuester Wetterbericht von vor 53 Minuten, um 05:00 UTC
Gültige Prognose vom 26 um 06 UTC bis 27 um 06 UTC
Wind 10 kt aus West/Südwest
Sichtweite 10 km oder mehr
Durchbrochene Bewölkung in der Höhe von 2000 ft
Übergehend zu
vom 26 um 17 UTC bis 26 um 19 UTC
Wind 2 kt aus unterschiedlichen Richtungen

TAF: LFOP 260500Z 2606/2706 25010KT 9999 BKN020 BECMG 2617/2619 VRB02KT

Wetterbeobachtungen und Prognosen von mehr als 4000 Flughäfen (METAR und TAF Bericht).

Die verfügbaren Stationen werden durch gelbe und rote Markierungen auf der Karte dargestellt.

Führen Sie die Maus auf sie, um den Namen der Station zu sehen.

Darauf klicken, um die Beobachtung von Wetterbeobachtungen und Prognosen zu sehen.

Um die Karte zu ändern : klicken Sie auf den grünen Tasten mit einem schwarzen Kreuz Zum Vergrößern, auf den grünen Button mit einem Gedankenstrich zu verkleinern, oder auf die grünen Pfeile für benachbarte Karten.


METAR-TAF: